createdAt,value
2022-12-16T00:01:11.565Z,0.50
2022-12-16T00:03:42.064Z,1.00
2022-12-16T00:06:10.841Z,0.70
2022-12-16T00:08:40.389Z,0.77
2022-12-16T00:11:09.212Z,0.50
2022-12-16T00:13:40.312Z,0.80
2022-12-16T00:16:10.254Z,0.73
2022-12-16T00:18:38.410Z,0.90
2022-12-16T00:21:08.453Z,0.50
2022-12-16T00:23:36.731Z,0.40
2022-12-16T00:26:04.709Z,0.90
2022-12-16T00:28:32.785Z,0.57
2022-12-16T00:31:00.584Z,0.70
2022-12-16T00:33:29.498Z,0.60
2022-12-16T00:35:57.869Z,0.67
2022-12-16T00:38:28.057Z,0.60
2022-12-16T00:40:55.821Z,0.60
2022-12-16T00:43:23.867Z,0.80
2022-12-16T00:45:51.968Z,0.80
2022-12-16T00:48:23.106Z,0.47
2022-12-16T00:50:52.588Z,0.60
2022-12-16T00:53:23.823Z,0.60
2022-12-16T00:55:53.262Z,0.90
2022-12-16T00:58:21.455Z,0.53
2022-12-16T01:00:49.228Z,0.70
2022-12-16T01:03:21.484Z,0.60
2022-12-16T01:05:50.332Z,0.67
2022-12-16T01:08:18.394Z,0.60
2022-12-16T01:10:52.449Z,0.70
2022-12-16T01:13:21.141Z,0.50
2022-12-16T01:15:49.444Z,0.60
2022-12-16T01:18:19.994Z,0.80
2022-12-16T01:20:47.904Z,0.70
2022-12-16T01:23:15.689Z,0.60
2022-12-16T01:25:43.444Z,0.80
2022-12-16T01:28:12.556Z,0.73
2022-12-16T01:30:40.266Z,0.80
2022-12-16T01:33:08.288Z,0.73
2022-12-16T01:35:55.583Z,0.90
2022-12-16T01:38:23.988Z,0.73
2022-12-16T01:40:51.763Z,0.60
2022-12-16T01:43:24.262Z,0.93
2022-12-16T01:45:53.646Z,0.97
2022-12-16T01:48:26.283Z,0.93
2022-12-16T01:51:00.092Z,0.90
2022-12-16T01:53:27.865Z,1.07
2022-12-16T01:55:58.678Z,0.60
2022-12-16T01:58:32.858Z,0.97
2022-12-16T02:01:02.340Z,1.00
2022-12-16T02:03:33.901Z,0.93
2022-12-16T02:06:03.148Z,0.60
2022-12-16T02:08:31.077Z,0.93
2022-12-16T02:11:31.343Z,0.97
2022-12-16T02:14:31.272Z,0.90
2022-12-16T02:17:05.107Z,1.07
2022-12-16T02:20:07.374Z,0.43
2022-12-16T02:22:48.254Z,0.90
2022-12-16T02:25:34.317Z,0.70
2022-12-16T02:28:09.762Z,1.10
2022-12-16T02:30:52.091Z,0.83
2022-12-16T02:33:54.084Z,0.47
2022-12-16T02:36:30.316Z,0.80
2022-12-16T02:39:03.053Z,0.60
2022-12-16T02:41:43.669Z,0.97
2022-12-16T02:44:13.222Z,0.47
2022-12-16T02:46:44.791Z,0.50
2022-12-16T02:49:47.640Z,0.43
2022-12-16T02:52:16.829Z,0.30
2022-12-16T02:54:45.883Z,0.73
2022-12-16T02:57:27.720Z,0.60
2022-12-16T03:00:01.842Z,0.70
2022-12-16T03:02:38.512Z,0.60
2022-12-16T03:05:11.745Z,0.40
2022-12-16T03:07:41.387Z,0.50
2022-12-16T03:10:12.855Z,0.53
2022-12-16T03:12:43.334Z,0.50
2022-12-16T03:15:13.593Z,0.60
2022-12-16T03:17:45.497Z,0.50
2022-12-16T03:20:18.548Z,0.30
2022-12-16T03:22:49.565Z,0.57
2022-12-16T03:25:17.672Z,0.40
2022-12-16T03:27:53.228Z,0.60
2022-12-16T03:30:26.689Z,0.50
2022-12-16T03:33:01.847Z,0.30
2022-12-16T03:35:34.657Z,0.50
2022-12-16T03:38:05.260Z,0.57
2022-12-16T03:40:35.274Z,0.30
2022-12-16T03:43:04.541Z,0.40
2022-12-16T03:45:38.820Z,0.60
2022-12-16T03:48:11.108Z,0.60
2022-12-16T03:50:39.739Z,0.60
2022-12-16T03:53:08.599Z,0.50
2022-12-16T03:55:36.368Z,0.47
2022-12-16T03:58:04.114Z,0.60
2022-12-16T04:00:31.838Z,0.67
2022-12-16T04:02:59.893Z,0.47
2022-12-16T04:05:29.130Z,0.50
2022-12-16T04:08:01.788Z,0.60
2022-12-16T04:10:44.182Z,0.60
2022-12-16T04:13:30.006Z,0.30
2022-12-16T04:16:15.566Z,0.40
2022-12-16T04:19:01.247Z,0.37
2022-12-16T04:21:47.869Z,0.37
2022-12-16T04:24:24.111Z,0.30
2022-12-16T04:27:15.104Z,0.50
2022-12-16T04:29:57.794Z,0.50
2022-12-16T04:32:25.862Z,0.40
2022-12-16T04:34:52.792Z,0.53
2022-12-16T04:37:39.473Z,0.40
2022-12-16T04:40:25.758Z,0.50
2022-12-16T04:43:10.999Z,0.40
2022-12-16T04:45:57.685Z,0.40
2022-12-16T04:48:57.273Z,0.30
2022-12-16T04:51:42.526Z,0.50
2022-12-16T04:54:29.325Z,0.53
2022-12-16T04:57:14.758Z,0.40
2022-12-16T04:59:59.780Z,0.60
2022-12-16T05:02:45.211Z,0.33
2022-12-16T05:05:30.696Z,0.50
2022-12-16T05:08:15.990Z,0.40
2022-12-16T05:11:02.305Z,0.50
2022-12-16T05:13:47.354Z,0.63
2022-12-16T05:16:32.685Z,0.50
2022-12-16T05:19:18.236Z,0.63
2022-12-16T05:22:03.892Z,0.47
2022-12-16T05:24:52.901Z,0.30
2022-12-16T05:27:40.042Z,0.40
2022-12-16T05:30:31.983Z,0.50
2022-12-16T05:33:18.917Z,0.40
2022-12-16T05:36:04.034Z,0.70
2022-12-16T05:38:49.137Z,0.70
2022-12-16T05:41:34.728Z,0.50
2022-12-16T05:44:21.634Z,0.50
2022-12-16T05:47:06.754Z,0.50
2022-12-16T05:49:52.036Z,0.70
2022-12-16T05:52:37.558Z,0.60
2022-12-16T05:55:23.591Z,0.60
2022-12-16T05:58:08.973Z,0.73
2022-12-16T06:00:55.908Z,0.80
2022-12-16T06:03:41.586Z,0.57
2022-12-16T06:06:23.429Z,0.47
2022-12-16T06:09:08.720Z,0.70
2022-12-16T06:11:54.369Z,0.70
2022-12-16T06:14:40.035Z,0.40
2022-12-16T06:17:26.548Z,0.53
2022-12-16T06:20:11.575Z,0.47
2022-12-16T06:22:56.812Z,0.60
2022-12-16T06:25:42.202Z,0.50
2022-12-16T06:28:27.536Z,0.70
2022-12-16T06:31:12.936Z,0.93
2022-12-16T06:33:59.378Z,1.00
2022-12-16T06:36:44.525Z,0.90
2022-12-16T06:39:29.626Z,0.80
2022-12-16T06:42:14.857Z,1.20
2022-12-16T06:44:59.940Z,1.03
2022-12-16T06:47:47.076Z,0.73
2022-12-16T06:53:51.419Z,0.60
2022-12-16T06:56:41.924Z,0.70
2022-12-16T06:59:30.651Z,0.83
2022-12-16T07:02:16.393Z,0.77
2022-12-16T07:05:16.142Z,0.90
2022-12-16T07:08:10.650Z,0.97
2022-12-16T07:11:13.821Z,0.67
2022-12-16T07:14:01.321Z,0.90
2022-12-16T07:16:50.979Z,0.80
2022-12-16T07:19:43.330Z,0.87
2022-12-16T07:22:30.570Z,0.90
2022-12-16T07:25:22.837Z,0.93
2022-12-16T07:28:15.819Z,0.83
2022-12-16T07:31:02.074Z,0.70
2022-12-16T07:33:50.467Z,0.80
2022-12-16T07:36:41.385Z,0.70
2022-12-16T07:39:30.797Z,1.03
2022-12-16T07:42:21.498Z,1.20
2022-12-16T07:45:11.109Z,1.00
2022-12-16T07:48:10.998Z,0.90
2022-12-16T07:51:03.443Z,1.10
2022-12-16T07:53:51.423Z,1.00
2022-12-16T07:56:40.949Z,1.17
2022-12-16T07:59:30.872Z,1.10
2022-12-16T08:02:22.718Z,1.00
2022-12-16T08:05:10.639Z,1.00
2022-12-16T08:08:00.588Z,0.93
2022-12-16T08:10:49.287Z,0.90
2022-12-16T08:13:39.775Z,1.00
2022-12-16T08:16:30.560Z,1.10
2022-12-16T08:19:20.776Z,1.07
2022-12-16T08:22:10.917Z,1.03
2022-12-16T08:24:59.765Z,1.67
2022-12-16T08:27:50.364Z,1.40
2022-12-16T08:30:38.244Z,1.70
2022-12-16T08:33:29.946Z,1.80
2022-12-16T08:36:20.943Z,1.60
2022-12-16T08:39:10.902Z,1.70
2022-12-16T08:41:59.946Z,1.33
2022-12-16T08:44:50.791Z,1.57
2022-12-16T08:47:40.095Z,1.93
2022-12-16T08:50:30.845Z,1.80
2022-12-16T08:53:20.917Z,1.70
2022-12-16T08:56:10.253Z,1.77
2022-12-16T08:59:01.387Z,1.97
2022-12-16T09:01:50.561Z,1.90
2022-12-16T09:04:44.664Z,1.87
2022-12-16T09:07:31.904Z,1.90
2022-12-16T09:10:20.933Z,2.67
2022-12-16T09:13:11.007Z,1.90
2022-12-16T09:16:17.390Z,1.60
2022-12-16T09:19:10.938Z,1.60
2022-12-16T09:22:03.253Z,1.80
2022-12-16T09:24:51.190Z,1.80
2022-12-16T09:27:39.954Z,1.60
2022-12-16T09:30:31.339Z,1.80
2022-12-16T09:33:21.094Z,1.63
2022-12-16T09:36:10.560Z,1.67
2022-12-16T09:39:04.863Z,2.23
2022-12-16T09:42:01.645Z,1.87
2022-12-16T09:45:11.170Z,1.87
2022-12-16T09:48:04.314Z,2.27
2022-12-16T09:50:51.596Z,1.80
2022-12-16T09:53:41.578Z,1.70
2022-12-16T09:56:52.125Z,1.77
2022-12-16T09:59:50.753Z,1.50
2022-12-16T10:02:41.583Z,1.87
2022-12-16T10:05:31.704Z,1.53
2022-12-16T10:08:29.318Z,1.30
2022-12-16T10:11:28.344Z,1.57
2022-12-16T10:14:23.520Z,1.53
2022-12-16T10:17:22.236Z,1.77
2022-12-16T10:20:20.288Z,1.50
2022-12-16T10:23:18.080Z,1.33
2022-12-16T10:26:09.896Z,1.57
2022-12-16T10:29:03.852Z,1.00
2022-12-16T10:31:51.214Z,1.40
2022-12-16T10:34:53.297Z,1.30
2022-12-16T10:37:51.207Z,1.63
2022-12-16T10:40:41.310Z,1.50
2022-12-16T10:43:40.082Z,1.30
2022-12-16T10:46:41.179Z,1.30
2022-12-16T10:49:33.387Z,1.27
2022-12-16T10:52:24.019Z,1.97
2022-12-16T10:55:41.264Z,1.17
2022-12-16T10:58:40.825Z,1.53
2022-12-16T11:01:41.381Z,1.40
2022-12-16T11:05:01.828Z,1.40
2022-12-16T11:07:53.089Z,1.57
2022-12-16T11:10:50.209Z,1.60
2022-12-16T11:13:42.839Z,1.87
2022-12-16T11:16:40.933Z,1.97
2022-12-16T11:19:41.045Z,1.63
2022-12-16T11:22:34.104Z,1.50
2022-12-16T11:25:31.782Z,1.60
2022-12-16T11:28:22.679Z,1.57
2022-12-16T11:31:12.712Z,1.97
2022-12-16T11:34:01.378Z,1.83
2022-12-16T11:36:51.344Z,1.87
2022-12-16T11:39:51.491Z,1.90
2022-12-16T11:42:44.425Z,1.73
2022-12-16T11:45:35.021Z,1.50
2022-12-16T11:48:31.382Z,1.60
2022-12-16T11:51:20.440Z,1.67
2022-12-16T11:54:11.593Z,1.83
2022-12-16T11:57:02.396Z,1.83
2022-12-16T11:59:55.287Z,1.50
2022-12-16T12:02:50.412Z,1.57
2022-12-16T12:05:43.832Z,1.90
2022-12-16T12:08:41.423Z,1.40
2022-12-16T12:11:34.790Z,1.40
2022-12-16T12:14:33.501Z,1.57
2022-12-16T12:17:42.743Z,1.40
2022-12-16T12:20:53.321Z,1.30
2022-12-16T12:23:50.426Z,1.40
2022-12-16T12:26:43.722Z,1.17
2022-12-16T12:29:41.508Z,1.30
2022-12-16T12:32:40.509Z,1.13
2022-12-16T12:35:50.643Z,1.10
2022-12-16T12:38:50.735Z,1.13
2022-12-16T12:41:49.022Z,1.10
2022-12-16T12:44:51.807Z,1.43
2022-12-16T12:47:42.168Z,1.67
2022-12-16T12:50:42.522Z,1.07
2022-12-16T12:53:41.550Z,1.30
2022-12-16T12:56:44.349Z,1.10
2022-12-16T12:59:34.941Z,1.37
2022-12-16T13:02:24.011Z,0.87
2022-12-16T13:05:11.770Z,1.03
2022-12-16T13:08:01.607Z,1.13
2022-12-16T13:10:59.676Z,1.47
2022-12-16T13:13:54.228Z,0.90
2022-12-16T13:17:32.087Z,1.00
2022-12-16T13:20:21.971Z,1.10
2022-12-16T13:23:11.647Z,1.00
2022-12-16T13:26:03.773Z,1.30
2022-12-16T13:28:53.337Z,1.20
2022-12-16T13:31:41.987Z,1.20
2022-12-16T13:34:51.495Z,1.27
2022-12-16T13:37:51.741Z,1.30
2022-12-16T13:40:42.083Z,1.20
2022-12-16T13:44:01.752Z,1.10
2022-12-16T13:47:02.061Z,1.03
2022-12-16T13:50:11.715Z,1.17
2022-12-16T13:53:10.835Z,1.00
2022-12-16T13:56:09.150Z,1.23
2022-12-16T13:59:00.881Z,1.17
2022-12-16T14:01:55.129Z,1.17
2022-12-16T14:04:48.940Z,1.33
2022-12-16T14:07:40.790Z,1.20
2022-12-16T14:10:42.422Z,1.03
2022-12-16T14:13:40.873Z,1.40
2022-12-16T14:16:39.150Z,1.07
2022-12-16T14:19:44.600Z,1.10
2022-12-16T14:22:45.340Z,1.03
2022-12-16T14:25:35.268Z,0.83
2022-12-16T14:28:30.118Z,0.97
2022-12-16T14:31:24.381Z,1.10
2022-12-16T14:34:13.577Z,1.60
2022-12-16T14:37:02.933Z,1.17
2022-12-16T14:39:59.997Z,1.30
2022-12-16T14:42:53.252Z,1.10
2022-12-16T14:45:54.492Z,1.47
2022-12-16T14:48:55.553Z,1.10
2022-12-16T14:51:49.625Z,1.50
2022-12-16T14:54:42.993Z,1.50
2022-12-16T14:57:33.906Z,1.13
2022-12-16T15:00:33.047Z,1.50
2022-12-16T15:03:25.058Z,1.30
2022-12-16T15:06:13.059Z,1.50
2022-12-16T15:09:11.137Z,1.37
2022-12-16T15:12:02.543Z,1.43
2022-12-16T15:14:53.746Z,1.40
2022-12-16T15:17:43.582Z,1.60
2022-12-16T15:20:35.559Z,1.10
2022-12-16T15:23:22.192Z,1.17
2022-12-16T15:26:14.605Z,1.20
2022-12-16T15:29:03.039Z,1.10
2022-12-16T15:31:53.171Z,1.53
2022-12-16T15:34:53.109Z,1.23
2022-12-16T15:37:42.624Z,1.43
2022-12-16T15:40:42.701Z,1.17
2022-12-16T15:43:46.542Z,1.33
2022-12-16T15:46:42.638Z,1.57
2022-12-16T15:49:41.609Z,2.87
2022-12-16T15:52:55.741Z,5.40
2022-12-16T15:55:53.185Z,8.70
2022-12-16T15:58:44.524Z,8.43
2022-12-16T16:01:34.653Z,8.37
2022-12-16T16:04:23.272Z,9.37
2022-12-16T16:07:12.671Z,7.60
2022-12-16T16:10:03.157Z,6.53
2022-12-16T16:12:49.580Z,6.60
2022-12-16T16:15:35.309Z,6.80
2022-12-16T16:18:23.647Z,5.83
2022-12-16T16:21:13.314Z,6.27
2022-12-16T16:24:02.589Z,6.10
2022-12-16T16:26:53.168Z,5.27
2022-12-16T16:29:41.402Z,5.53
2022-12-16T16:32:33.228Z,5.30
2022-12-16T16:35:22.369Z,4.83
2022-12-16T16:38:23.784Z,4.97
2022-12-16T16:41:14.248Z,5.27
2022-12-16T16:44:04.337Z,5.70
2022-12-16T16:46:53.072Z,6.37
2022-12-16T16:49:41.172Z,7.40
2022-12-16T16:52:30.965Z,8.17
2022-12-16T16:55:16.081Z,8.97
2022-12-16T16:58:01.711Z,10.57
2022-12-16T17:00:48.539Z,9.57
2022-12-16T17:03:34.630Z,9.47
2022-12-16T17:06:20.483Z,8.37
2022-12-16T17:09:05.678Z,8.37
2022-12-16T17:11:52.259Z,8.07
2022-12-16T17:14:39.298Z,7.60
2022-12-16T17:17:25.819Z,6.87
2022-12-16T17:20:10.847Z,7.63
2022-12-16T17:22:56.188Z,6.00
2022-12-16T17:25:41.657Z,6.90
2022-12-16T17:28:29.532Z,6.27
2022-12-16T17:31:14.629Z,5.70
2022-12-16T17:34:00.960Z,6.17
2022-12-16T17:36:47.530Z,5.73
2022-12-16T17:39:32.921Z,5.87
2022-12-16T17:42:18.304Z,6.73
2022-12-16T17:45:03.801Z,7.43
2022-12-16T17:47:48.943Z,7.80
2022-12-16T17:50:43.983Z,6.70
2022-12-16T17:53:29.557Z,6.93
2022-12-16T17:56:14.621Z,6.03
2022-12-16T17:59:14.369Z,6.93
2022-12-16T18:01:58.835Z,6.30
2022-12-16T18:04:44.366Z,6.50
2022-12-16T18:07:30.872Z,6.30
2022-12-16T18:10:16.003Z,7.23
2022-12-16T18:13:01.562Z,6.20
2022-12-16T18:15:46.736Z,6.30
2022-12-16T18:18:32.063Z,6.30
2022-12-16T18:21:27.368Z,6.37
2022-12-16T18:24:14.183Z,5.90
2022-12-16T18:26:59.799Z,6.00
2022-12-16T18:29:45.293Z,6.27
2022-12-16T18:32:34.921Z,5.60
2022-12-16T18:35:20.530Z,5.70
2022-12-16T18:38:05.577Z,5.60
2022-12-16T18:40:52.581Z,5.63
2022-12-16T18:43:37.728Z,5.50
2022-12-16T18:46:22.994Z,5.63
2022-12-16T18:49:09.555Z,5.67
2022-12-16T18:51:54.518Z,5.00
2022-12-16T18:54:39.650Z,5.90
2022-12-16T18:57:26.531Z,5.70
2022-12-16T19:00:11.726Z,5.50
2022-12-16T19:02:57.354Z,7.23
2022-12-16T19:05:42.484Z,6.07
2022-12-16T19:08:27.476Z,6.50
2022-12-16T19:11:15.458Z,5.43
2022-12-16T19:14:01.886Z,5.83
2022-12-16T19:16:47.118Z,6.13
2022-12-16T19:19:32.495Z,5.60
2022-12-16T19:22:17.665Z,5.33
2022-12-16T19:25:02.751Z,5.33
2022-12-16T19:27:47.858Z,5.70
2022-12-16T19:30:37.625Z,5.47
2022-12-16T19:33:23.020Z,6.93
2022-12-16T19:36:08.193Z,6.03
2022-12-16T19:38:54.901Z,6.13
2022-12-16T19:41:41.672Z,7.00
2022-12-16T19:44:27.117Z,8.13
2022-12-16T19:47:16.712Z,7.73
2022-12-16T19:50:01.721Z,7.30
2022-12-16T19:52:47.344Z,9.40
2022-12-16T19:55:32.497Z,8.10
2022-12-16T19:58:17.645Z,8.40
2022-12-16T20:01:02.880Z,8.10
2022-12-16T20:03:49.881Z,8.77
2022-12-16T20:06:35.672Z,10.07
2022-12-16T20:09:21.217Z,9.07
2022-12-16T20:12:06.257Z,8.97
2022-12-16T20:14:52.027Z,8.77
2022-12-16T20:17:37.951Z,8.83
2022-12-16T20:20:25.352Z,8.27
2022-12-16T20:23:10.575Z,7.97
2022-12-16T20:26:01.379Z,7.63
2022-12-16T20:28:46.510Z,7.70
2022-12-16T20:31:31.941Z,6.97
2022-12-16T20:34:16.814Z,7.03
2022-12-16T20:37:03.657Z,7.67
2022-12-16T20:39:56.392Z,6.27
2022-12-16T20:42:42.643Z,6.77
2022-12-16T20:45:28.725Z,6.53
2022-12-16T20:48:14.232Z,6.03
2022-12-16T20:50:59.913Z,6.87
2022-12-16T20:53:47.542Z,6.77
2022-12-16T20:56:32.850Z,6.97
2022-12-16T20:59:17.545Z,8.40
2022-12-16T21:02:22.753Z,6.90
2022-12-16T21:05:07.184Z,7.80
2022-12-16T21:07:52.801Z,6.97
2022-12-16T21:10:39.905Z,8.10
2022-12-16T21:13:25.829Z,7.67
2022-12-16T21:16:10.874Z,7.97
2022-12-16T21:18:56.402Z,7.30
2022-12-16T21:21:42.022Z,7.40
2022-12-16T21:24:27.265Z,7.63
2022-12-16T21:27:13.957Z,7.43
2022-12-16T21:29:58.976Z,6.17
2022-12-16T21:32:44.599Z,6.30
2022-12-16T21:35:30.233Z,6.90
2022-12-16T21:38:16.507Z,6.10
2022-12-16T21:41:01.745Z,6.60
2022-12-16T21:43:48.297Z,5.97
2022-12-16T21:46:33.512Z,5.70
2022-12-16T21:49:18.504Z,6.07
2022-12-16T21:52:03.722Z,6.17
2022-12-16T21:54:49.161Z,4.87
2022-12-16T21:57:34.248Z,6.40
2022-12-16T22:00:22.344Z,5.60
2022-12-16T22:03:07.684Z,6.37
2022-12-16T22:05:56.166Z,6.00
2022-12-16T22:08:41.734Z,6.37
2022-12-16T22:11:28.380Z,6.10
2022-12-16T22:14:13.539Z,6.63
2022-12-16T22:17:00.293Z,5.90
2022-12-16T22:19:45.461Z,6.93
2022-12-16T22:22:30.930Z,6.33
2022-12-16T22:25:16.485Z,6.20
2022-12-16T22:28:01.928Z,6.63
2022-12-16T22:30:47.269Z,6.40
2022-12-16T22:33:33.746Z,7.13
2022-12-16T22:36:33.779Z,6.57
2022-12-16T22:39:19.049Z,5.57
2022-12-16T22:42:04.358Z,6.53
2022-12-16T22:44:49.977Z,6.23
2022-12-16T22:47:35.028Z,6.97
2022-12-16T22:50:22.351Z,6.10
2022-12-16T22:53:07.828Z,6.77
2022-12-16T22:55:56.171Z,6.17
2022-12-16T22:58:45.359Z,7.50
2022-12-16T23:01:30.935Z,6.40
2022-12-16T23:04:16.163Z,6.43
2022-12-16T23:07:02.750Z,6.80
2022-12-16T23:09:47.895Z,6.47
2022-12-16T23:12:32.956Z,6.87
2022-12-16T23:15:18.476Z,7.03
2022-12-16T23:18:03.391Z,6.90
2022-12-16T23:20:50.720Z,7.10
2022-12-16T23:23:37.953Z,6.50
2022-12-16T23:26:23.677Z,6.73
2022-12-16T23:29:09.259Z,6.73
2022-12-16T23:31:56.557Z,6.83
2022-12-16T23:34:45.762Z,6.20
2022-12-16T23:37:31.482Z,6.90
2022-12-16T23:40:18.568Z,7.10
2022-12-16T23:43:05.062Z,6.50
2022-12-16T23:45:50.372Z,6.20
2022-12-16T23:48:35.561Z,6.60
2022-12-16T23:51:20.974Z,5.97
2022-12-16T23:54:08.720Z,6.07
2022-12-16T23:56:56.415Z,6.50
2022-12-16T23:59:41.863Z,7.03
